createdAt,value
2019-02-16T00:00:48.779Z,68.57
2019-02-16T00:01:48.722Z,68.68
2019-02-16T00:02:48.713Z,68.68
2019-02-16T00:03:48.710Z,69.40
2019-02-16T00:04:48.696Z,70.23
2019-02-16T00:05:48.719Z,69.20
2019-02-16T00:06:48.670Z,69.61
2019-02-16T00:07:48.662Z,69.17
2019-02-16T00:08:48.646Z,69.40
2019-02-16T00:09:48.642Z,69.30
2019-02-16T00:10:48.669Z,69.40
2019-02-16T00:11:48.615Z,68.37
2019-02-16T00:12:48.603Z,68.68
2019-02-16T00:13:48.596Z,68.47
2019-02-16T00:14:48.581Z,68.78
2019-02-16T00:15:48.612Z,68.57
2019-02-16T00:16:48.560Z,68.68
2019-02-16T00:17:48.549Z,68.57
2019-02-16T00:18:48.538Z,69.92
2019-02-16T00:19:48.531Z,68.57
2019-02-16T00:20:48.570Z,68.99
2019-02-16T00:21:48.510Z,69.20
2019-02-16T00:22:48.495Z,69.43
2019-02-16T00:23:48.485Z,70.27
2019-02-16T00:24:48.480Z,70.23
2019-02-16T00:25:48.476Z,70.06
2019-02-16T00:26:48.496Z,70.58
2019-02-16T00:27:48.448Z,70.58
2019-02-16T00:28:48.432Z,71.31
2019-02-16T00:29:48.424Z,70.37
2019-02-16T00:30:48.411Z,70.72
2019-02-16T00:31:48.452Z,70.82
2019-02-16T00:32:48.392Z,71.65
2019-02-16T00:33:48.392Z,71.65
2019-02-16T00:34:48.369Z,71.55
2019-02-16T00:35:48.362Z,71.69
2019-02-16T00:36:48.389Z,72.31
2019-02-16T00:37:48.343Z,72.38
2019-02-16T00:38:48.328Z,72.31
2019-02-16T00:39:48.317Z,72.20
2019-02-16T00:40:48.304Z,72.93
2019-02-16T00:41:48.338Z,73.25
2019-02-16T00:42:48.285Z,72.62
2019-02-16T00:43:48.271Z,73.03
2019-02-16T00:44:48.268Z,72.93
2019-02-16T00:45:48.254Z,73.03
2019-02-16T00:46:48.290Z,73.69
2019-02-16T00:47:48.231Z,73.49
2019-02-16T00:48:48.219Z,73.90
2019-02-16T00:49:48.208Z,73.90
2019-02-16T00:50:48.197Z,74.21
2019-02-16T00:51:48.229Z,74.21
2019-02-16T00:52:48.178Z,74.43
2019-02-16T00:53:48.169Z,74.95
2019-02-16T00:54:48.157Z,74.66
2019-02-16T00:55:48.149Z,74.87
2019-02-16T00:56:48.184Z,74.77
2019-02-16T00:57:48.123Z,75.19
2019-02-16T00:58:48.128Z,75.09
2019-02-16T00:59:48.142Z,75.29
2019-02-16T01:00:48.128Z,75.71
2019-02-16T01:01:48.125Z,75.92
2019-02-16T01:02:48.074Z,75.50
2019-02-16T01:03:48.098Z,75.40
2019-02-16T01:04:48.104Z,76.12
2019-02-16T01:05:48.039Z,76.02
2019-02-16T01:06:48.108Z,75.92
2019-02-16T01:07:48.078Z,75.19
2019-02-16T01:08:48.069Z,75.60
2019-02-16T01:09:47.999Z,75.43
2019-02-16T01:10:48.074Z,75.43
2019-02-16T01:11:48.022Z,75.74
2019-02-16T01:12:47.966Z,75.19
2019-02-16T01:13:47.955Z,75.22
2019-02-16T01:14:48.087Z,75.64
2019-02-16T01:15:47.936Z,75.64
2019-02-16T01:16:48.148Z,75.53
2019-02-16T01:17:48.073Z,75.53
2019-02-16T01:18:47.904Z,75.22
2019-02-16T01:19:47.890Z,75.32
2019-02-16T01:20:48.054Z,75.43
2019-02-16T01:21:48.092Z,75.22
2019-02-16T01:22:48.080Z,75.74
2019-02-16T01:23:48.056Z,76.37
2019-02-16T01:24:48.043Z,75.22
2019-02-16T01:25:48.083Z,75.22
2019-02-16T01:26:48.105Z,75.64
2019-02-16T01:27:48.059Z,75.53
2019-02-16T01:28:48.058Z,75.64
2019-02-16T01:29:48.055Z,75.43
2019-02-16T01:30:47.776Z,75.43
2019-02-16T01:31:48.059Z,75.43
2019-02-16T01:32:47.755Z,75.43
2019-02-16T01:33:47.754Z,75.32
2019-02-16T01:34:47.735Z,76.06
2019-02-16T01:35:47.722Z,76.26
2019-02-16T01:36:48.056Z,76.57
2019-02-16T01:37:47.700Z,76.06
2019-02-16T01:38:47.689Z,75.95
2019-02-16T01:39:47.682Z,76.26
2019-02-16T01:40:47.679Z,76.06
2019-02-16T01:41:48.050Z,76.57
2019-02-16T01:42:47.692Z,75.64
2019-02-16T01:43:47.648Z,76.06
2019-02-16T01:44:47.631Z,76.37
2019-02-16T01:45:47.617Z,76.57
2019-02-16T01:46:47.608Z,76.78
2019-02-16T01:47:47.636Z,75.85
2019-02-16T01:48:47.586Z,76.16
2019-02-16T01:49:47.573Z,76.40
2019-02-16T01:50:47.561Z,76.57
2019-02-16T01:51:47.553Z,76.92
2019-02-16T01:52:47.599Z,76.40
2019-02-16T01:53:47.532Z,76.20
2019-02-16T01:54:47.572Z,76.40
2019-02-16T01:55:47.662Z,77.23
2019-02-16T01:56:47.510Z,77.23
2019-02-16T01:57:47.539Z,77.97
2019-02-16T01:58:47.477Z,78.07
2019-02-16T01:59:47.467Z,77.13
2019-02-16T02:00:47.455Z,77.97
2019-02-16T02:01:47.446Z,77.86
2019-02-16T02:02:47.481Z,77.23
2019-02-16T02:03:47.434Z,77.23
2019-02-16T02:04:47.415Z,77.97
2019-02-16T02:05:47.403Z,77.48
2019-02-16T02:06:47.394Z,78.11
2019-02-16T02:07:47.424Z,78.42
2019-02-16T02:08:47.371Z,77.90
2019-02-16T02:09:47.368Z,78.11
2019-02-16T02:10:47.349Z,78.00
2019-02-16T02:11:47.339Z,77.58
2019-02-16T02:12:47.372Z,77.58
2019-02-16T02:13:47.320Z,78.80
2019-02-16T02:14:47.309Z,78.73
2019-02-16T02:15:47.298Z,78.63
2019-02-16T02:16:47.289Z,78.00
2019-02-16T02:17:47.323Z,78.00
2019-02-16T02:18:47.268Z,77.90
2019-02-16T02:19:47.254Z,78.42
2019-02-16T02:20:47.244Z,78.31
2019-02-16T02:21:47.234Z,78.31
2019-02-16T02:22:47.289Z,77.48
2019-02-16T02:23:47.215Z,78.42
2019-02-16T02:24:47.203Z,78.00
2019-02-16T02:25:47.192Z,78.11
2019-02-16T02:26:47.180Z,78.94
2019-02-16T02:27:47.213Z,78.73
2019-02-16T02:28:47.159Z,78.94
2019-02-16T02:29:47.151Z,78.94
2019-02-16T02:30:47.291Z,78.94
2019-02-16T02:31:47.281Z,79.98
2019-02-16T02:32:47.165Z,80.02
2019-02-16T02:33:47.108Z,80.33
2019-02-16T02:34:47.140Z,80.33
2019-02-16T02:35:47.084Z,80.02
2019-02-16T02:36:47.089Z,79.77
2019-02-16T02:37:47.271Z,79.77
2019-02-16T02:38:47.133Z,79.77
2019-02-16T02:39:47.044Z,79.98
2019-02-16T02:40:47.294Z,79.15
2019-02-16T02:41:47.283Z,79.01
2019-02-16T02:42:47.100Z,79.01
2019-02-16T02:43:47.069Z,77.97
2019-02-16T02:44:46.989Z,79.22
2019-02-16T02:45:47.099Z,77.97
2019-02-16T02:46:46.968Z,78.63
2019-02-16T02:47:47.097Z,78.83
2019-02-16T02:48:46.946Z,79.15
2019-02-16T02:49:46.935Z,79.05
2019-02-16T02:50:46.930Z,78.83
2019-02-16T02:51:52.297Z,79.15
2019-02-16T02:52:47.973Z,78.73
2019-02-16T02:53:47.024Z,80.09
2019-02-16T02:54:46.882Z,79.57
2019-02-16T02:55:46.877Z,79.57
2019-02-16T02:56:46.861Z,79.88
2019-02-16T02:57:47.166Z,80.02
2019-02-16T02:58:46.883Z,79.81
2019-02-16T02:59:47.302Z,79.39
2019-02-16T03:00:47.250Z,80.85
2019-02-16T03:01:47.148Z,79.71
2019-02-16T03:02:46.798Z,80.02
2019-02-16T03:03:46.852Z,80.23
2019-02-16T03:04:47.011Z,80.13
2019-02-16T03:05:46.782Z,79.60
2019-02-16T03:06:46.758Z,79.91
2019-02-16T03:07:46.747Z,80.13
2019-02-16T03:08:46.776Z,79.71
2019-02-16T03:09:46.720Z,79.39
2019-02-16T03:10:46.719Z,80.23
2019-02-16T03:11:46.704Z,79.85
2019-02-16T03:12:46.740Z,79.81
2019-02-16T03:13:46.733Z,79.81
2019-02-16T03:14:46.671Z,80.05
2019-02-16T03:15:46.657Z,80.02
2019-02-16T03:16:46.649Z,80.13
2019-02-16T03:17:46.635Z,80.05
2019-02-16T03:18:46.671Z,79.85
2019-02-16T03:19:46.615Z,79.95
2019-02-16T03:20:46.603Z,80.99
2019-02-16T03:21:46.600Z,79.95
2019-02-16T03:22:46.582Z,79.85
2019-02-16T03:23:46.616Z,79.74
2019-02-16T03:24:46.574Z,80.16
2019-02-16T03:25:46.562Z,80.68
2019-02-16T03:26:46.541Z,80.05
2019-02-16T03:27:46.531Z,80.05
2019-02-16T03:28:46.563Z,79.95
2019-02-16T03:29:46.506Z,80.27
2019-02-16T03:30:46.497Z,80.09
2019-02-16T03:31:46.490Z,79.78
2019-02-16T03:32:46.485Z,80.05
2019-02-16T03:33:46.514Z,80.72
2019-02-16T03:34:46.454Z,80.30
2019-02-16T03:35:46.453Z,80.72
2019-02-16T03:36:46.436Z,80.82
2019-02-16T03:37:46.424Z,80.82
2019-02-16T03:38:46.453Z,80.93
2019-02-16T03:39:46.402Z,81.03
2019-02-16T03:40:46.389Z,80.72
2019-02-16T03:41:46.380Z,80.82
2019-02-16T03:42:46.370Z,80.82
2019-02-16T03:43:46.405Z,80.82
2019-02-16T03:44:46.351Z,80.44
2019-02-16T03:45:46.337Z,80.41
2019-02-16T03:46:46.324Z,80.20
2019-02-16T03:47:46.313Z,80.44
2019-02-16T03:48:46.358Z,80.13
2019-02-16T03:49:46.300Z,79.92
2019-02-16T03:50:46.280Z,81.49
2019-02-16T03:51:46.280Z,80.76
2019-02-16T03:52:46.259Z,81.38
2019-02-16T03:53:46.299Z,80.69
2019-02-16T03:54:46.255Z,81.38
2019-02-16T03:55:46.232Z,81.18
2019-02-16T03:56:46.219Z,81.63
2019-02-16T03:57:46.222Z,81.38
2019-02-16T03:58:46.239Z,81.07
2019-02-16T03:59:46.186Z,81.18
2019-02-16T04:00:46.176Z,81.70
2019-02-16T04:01:46.168Z,81.59
2019-02-16T04:02:46.162Z,82.43
2019-02-16T04:03:46.185Z,82.12
2019-02-16T04:04:46.134Z,82.01
2019-02-16T04:05:46.120Z,82.53
2019-02-16T04:06:46.107Z,82.84
2019-02-16T04:07:46.102Z,82.36
2019-02-16T04:08:46.134Z,82.53
2019-02-16T04:09:46.081Z,82.01
2019-02-16T04:10:46.066Z,81.90
2019-02-16T04:11:46.071Z,82.12
2019-02-16T04:12:46.090Z,81.18
2019-02-16T04:13:46.087Z,81.00
2019-02-16T04:14:46.035Z,81.63
2019-02-16T04:15:46.010Z,81.21
2019-02-16T04:16:46.005Z,81.73
2019-02-16T04:17:45.995Z,82.57
2019-02-16T04:18:46.025Z,83.16
2019-02-16T04:19:45.971Z,82.78
2019-02-16T04:20:45.970Z,82.36
2019-02-16T04:21:45.968Z,82.05
2019-02-16T04:22:45.938Z,81.95
2019-02-16T04:23:45.923Z,81.21
2019-02-16T04:24:45.955Z,82.15
2019-02-16T04:25:45.907Z,81.52
2019-02-16T04:26:45.904Z,81.42
2019-02-16T04:27:45.886Z,81.00
2019-02-16T04:28:45.871Z,82.05
2019-02-16T04:29:45.901Z,81.73
2019-02-16T04:30:45.848Z,82.36
2019-02-16T04:31:45.840Z,82.36
2019-02-16T04:32:45.827Z,82.05
2019-02-16T04:33:45.820Z,82.89
2019-02-16T04:34:45.858Z,82.46
2019-02-16T04:35:45.794Z,82.46
2019-02-16T04:36:45.784Z,82.89
2019-02-16T04:37:45.779Z,82.99
2019-02-16T04:38:45.760Z,82.78
2019-02-16T04:39:45.803Z,82.57
2019-02-16T04:40:45.741Z,82.99
2019-02-16T04:41:45.728Z,82.89
2019-02-16T04:42:45.718Z,83.30
2019-02-16T04:43:45.724Z,82.46
2019-02-16T04:44:45.737Z,82.78
2019-02-16T04:45:45.699Z,82.78
2019-02-16T04:46:45.673Z,82.57
2019-02-16T04:47:45.662Z,82.36
2019-02-16T04:48:45.659Z,82.57
2019-02-16T04:49:45.684Z,82.67
2019-02-16T04:50:45.627Z,83.09
2019-02-16T04:51:45.634Z,82.89
2019-02-16T04:52:45.606Z,82.46
2019-02-16T04:53:45.595Z,82.36
2019-02-16T04:54:45.639Z,81.95
2019-02-16T04:55:45.636Z,82.57
2019-02-16T04:56:45.562Z,82.15
2019-02-16T04:57:45.564Z,82.29
2019-02-16T04:58:45.541Z,82.36
2019-02-16T04:59:45.583Z,82.46
2019-02-16T05:00:45.530Z,82.89
2019-02-16T05:01:45.507Z,82.36
2019-02-16T05:02:45.497Z,82.26
2019-02-16T05:03:45.492Z,83.03
2019-02-16T05:04:45.561Z,83.03
2019-02-16T05:05:45.467Z,83.65
2019-02-16T05:06:45.477Z,83.44
2019-02-16T05:07:45.447Z,84.07
2019-02-16T05:08:45.431Z,83.55
2019-02-16T05:09:45.464Z,84.17
2019-02-16T05:10:45.420Z,83.72
2019-02-16T05:11:45.408Z,83.72
2019-02-16T05:12:45.396Z,83.86
2019-02-16T05:13:45.378Z,83.62
2019-02-16T05:14:45.428Z,83.51
2019-02-16T05:15:45.357Z,83.83
2019-02-16T05:16:45.345Z,83.83
2019-02-16T05:17:45.349Z,83.83
2019-02-16T05:18:45.343Z,83.72
2019-02-16T05:19:45.368Z,84.03
2019-02-16T05:20:45.378Z,83.51
2019-02-16T05:21:45.293Z,83.62
2019-02-16T05:22:45.281Z,83.72
2019-02-16T05:23:45.282Z,83.62
2019-02-16T05:24:45.300Z,83.72
2019-02-16T05:25:45.246Z,83.93
2019-02-16T05:26:45.253Z,83.93
2019-02-16T05:27:45.226Z,83.51
2019-02-16T05:28:45.217Z,83.51
2019-02-16T05:29:45.250Z,83.83
2019-02-16T05:30:45.193Z,83.40
2019-02-16T05:31:45.182Z,83.93
2019-02-16T05:32:45.203Z,83.65
2019-02-16T05:33:45.160Z,84.39
2019-02-16T05:34:45.322Z,84.17
2019-02-16T05:35:45.156Z,84.03
2019-02-16T05:36:45.131Z,84.39
2019-02-16T05:37:45.124Z,83.83
2019-02-16T05:38:45.117Z,83.76
2019-02-16T05:39:45.095Z,83.86
2019-02-16T05:40:45.128Z,83.76
2019-02-16T05:41:45.078Z,83.93
2019-02-16T05:42:45.064Z,84.17
2019-02-16T05:43:45.053Z,83.83
2019-02-16T05:44:45.044Z,83.86
2019-02-16T05:45:45.072Z,83.65
2019-02-16T05:46:45.023Z,83.55
2019-02-16T05:47:45.026Z,83.86
2019-02-16T05:48:45.002Z,83.65
2019-02-16T05:49:44.989Z,83.97
2019-02-16T05:50:45.028Z,83.97
2019-02-16T05:51:44.976Z,84.07
2019-02-16T05:52:53.703Z,84.28
2019-02-16T05:53:45.944Z,84.07
2019-02-16T05:54:44.935Z,84.17
2019-02-16T05:55:44.965Z,83.97
2019-02-16T05:56:44.914Z,83.55
2019-02-16T05:57:44.904Z,83.23
2019-02-16T05:58:44.905Z,83.65
2019-02-16T05:59:44.880Z,83.44
2019-02-16T06:00:44.915Z,84.28
2019-02-16T06:01:53.536Z,83.97
2019-02-16T06:02:45.848Z,83.76
2019-02-16T06:03:44.841Z,83.76
2019-02-16T06:04:44.825Z,84.11
2019-02-16T06:05:44.864Z,83.86
2019-02-16T06:06:44.804Z,84.95
2019-02-16T06:07:44.794Z,84.42
2019-02-16T06:08:44.784Z,84.11
2019-02-16T06:09:44.780Z,84.84
2019-02-16T06:10:44.806Z,84.28
2019-02-16T06:11:44.752Z,84.42
2019-02-16T06:12:44.742Z,83.59
2019-02-16T06:13:44.734Z,83.80
2019-02-16T06:14:44.719Z,84.22
2019-02-16T06:15:44.777Z,83.80
2019-02-16T06:16:44.696Z,84.22
2019-02-16T06:17:44.686Z,83.80
2019-02-16T06:18:44.680Z,83.48
2019-02-16T06:19:44.667Z,83.59
2019-02-16T06:20:44.698Z,83.80
2019-02-16T06:21:44.651Z,83.69
2019-02-16T06:22:44.660Z,83.90
2019-02-16T06:23:44.620Z,83.80
2019-02-16T06:24:44.620Z,83.59
2019-02-16T06:25:44.643Z,84.11
2019-02-16T06:26:44.588Z,84.84
2019-02-16T06:27:44.578Z,84.74
2019-02-16T06:28:44.568Z,84.84
2019-02-16T06:29:44.565Z,84.95
2019-02-16T06:30:44.587Z,84.63
2019-02-16T06:31:44.541Z,84.63
2019-02-16T06:32:44.530Z,84.42
2019-02-16T06:33:44.515Z,84.74
2019-02-16T06:34:44.505Z,84.42
2019-02-16T06:35:44.543Z,84.74
2019-02-16T06:36:44.483Z,85.58
2019-02-16T06:37:44.471Z,85.36
2019-02-16T06:38:44.465Z,84.67
2019-02-16T06:39:44.448Z,84.74
2019-02-16T06:40:44.543Z,84.22
2019-02-16T06:41:44.428Z,84.46
2019-02-16T06:42:44.415Z,85.16
2019-02-16T06:43:44.407Z,84.84
2019-02-16T06:44:44.393Z,84.53
2019-02-16T06:45:44.426Z,84.74
2019-02-16T06:46:44.370Z,84.53
2019-02-16T06:47:44.371Z,84.00
2019-02-16T06:48:44.347Z,84.63
2019-02-16T06:49:44.341Z,84.63
2019-02-16T06:50:44.459Z,84.63
2019-02-16T06:51:44.318Z,84.95
2019-02-16T06:52:44.303Z,84.32
2019-02-16T06:53:44.292Z,84.53
2019-02-16T06:54:44.288Z,84.84
2019-02-16T06:55:44.275Z,83.90
2019-02-16T06:56:44.302Z,84.42
2019-02-16T06:57:44.248Z,84.99
2019-02-16T06:58:44.238Z,84.78
2019-02-16T06:59:44.227Z,84.63
2019-02-16T07:00:44.222Z,84.67
2019-02-16T07:01:44.247Z,84.95
2019-02-16T07:02:44.193Z,84.84
2019-02-16T07:03:44.187Z,84.84
2019-02-16T07:04:44.177Z,84.84
2019-02-16T07:05:44.186Z,84.84
2019-02-16T07:06:44.227Z,84.56
2019-02-16T07:07:44.172Z,84.95
2019-02-16T07:08:44.365Z,85.47
2019-02-16T07:09:44.117Z,86.41
2019-02-16T07:10:44.122Z,86.20
2019-02-16T07:11:44.179Z,85.68
2019-02-16T07:12:44.081Z,84.84
2019-02-16T07:13:44.097Z,84.74
2019-02-16T07:14:44.059Z,85.58
2019-02-16T07:15:44.054Z,86.31
2019-02-16T07:16:44.081Z,85.99
2019-02-16T07:17:44.028Z,86.41
2019-02-16T07:18:44.022Z,85.68
2019-02-16T07:19:44.026Z,85.53
2019-02-16T07:20:43.997Z,85.85
2019-02-16T07:21:44.027Z,85.53
2019-02-16T07:22:43.970Z,85.43
2019-02-16T07:23:43.978Z,84.70
2019-02-16T07:24:43.953Z,84.39
2019-02-16T07:25:43.938Z,84.70
2019-02-16T07:26:43.972Z,84.56
2019-02-16T07:27:43.931Z,84.45
2019-02-16T07:28:43.903Z,84.56
2019-02-16T07:29:43.894Z,84.66
2019-02-16T07:30:43.880Z,84.56
2019-02-16T07:31:43.946Z,84.56
2019-02-16T07:32:43.859Z,84.56
2019-02-16T07:33:43.926Z,84.14
2019-02-16T07:34:43.837Z,83.62
2019-02-16T07:35:43.830Z,83.83
2019-02-16T07:36:43.861Z,83.93
2019-02-16T07:37:43.851Z,84.14
2019-02-16T07:38:43.794Z,83.93
2019-02-16T07:39:43.827Z,84.66
2019-02-16T07:40:43.770Z,84.41
2019-02-16T07:41:43.841Z,83.89
2019-02-16T07:42:43.748Z,83.47
2019-02-16T07:43:43.737Z,83.78
2019-02-16T07:44:43.727Z,83.78
2019-02-16T07:45:43.714Z,83.47
2019-02-16T07:46:43.749Z,84.58
2019-02-16T07:47:43.713Z,83.78
2019-02-16T07:48:43.684Z,83.85
2019-02-16T07:49:43.670Z,83.85
2019-02-16T07:50:43.660Z,83.44
2019-02-16T07:51:43.695Z,83.95
2019-02-16T07:52:43.652Z,83.75
2019-02-16T07:53:43.633Z,83.50
2019-02-16T07:54:43.633Z,83.50
2019-02-16T07:55:43.606Z,83.40
2019-02-16T07:56:43.696Z,84.23
2019-02-16T07:57:43.586Z,83.67
2019-02-16T07:58:43.597Z,83.57
2019-02-16T07:59:43.561Z,83.32
2019-02-16T08:00:43.561Z,82.73
2019-02-16T08:01:43.581Z,82.65
2019-02-16T08:02:43.530Z,81.05
2019-02-16T08:03:43.521Z,74.53
2019-02-16T08:04:43.522Z,67.78
2019-02-16T08:05:43.497Z,61.96
2019-02-16T08:06:43.530Z,57.39
2019-02-16T08:07:43.474Z,54.59
2019-02-16T08:08:43.496Z,51.72
2019-02-16T08:09:43.455Z,49.17
2019-02-16T08:10:43.463Z,47.49
2019-02-16T08:11:43.474Z,46.92
2019-02-16T08:12:43.422Z,44.40
2019-02-16T08:13:43.413Z,43.23
2019-02-16T08:14:43.402Z,41.94
2019-02-16T08:15:43.390Z,41.70
2019-02-16T08:16:43.454Z,40.22
2019-02-16T08:17:43.367Z,39.88
2019-02-16T08:18:43.379Z,38.43
2019-02-16T08:19:43.346Z,38.19
2019-02-16T08:20:43.351Z,36.86
2019-02-16T08:21:43.368Z,36.62
2019-02-16T08:22:43.317Z,35.60
2019-02-16T08:23:43.305Z,35.77
2019-02-16T08:24:43.291Z,34.34
2019-02-16T08:25:43.280Z,35.03
2019-02-16T08:26:43.315Z,32.90
2019-02-16T08:27:43.258Z,33.07
2019-02-16T08:28:43.249Z,33.55
2019-02-16T08:29:43.258Z,32.93
2019-02-16T08:30:43.229Z,33.12
2019-02-16T08:31:43.287Z,32.00
2019-02-16T08:32:43.205Z,32.39
2019-02-16T08:33:43.194Z,31.38
2019-02-16T08:34:43.182Z,31.67
2019-02-16T08:35:43.170Z,32.47
2019-02-16T08:36:43.164Z,31.79
2019-02-16T08:37:43.191Z,31.71
2019-02-16T08:38:43.138Z,31.21
2019-02-16T08:39:43.153Z,32.69
2019-02-16T08:40:43.116Z,32.97
2019-02-16T08:41:43.144Z,30.15
2019-02-16T08:42:43.136Z,30.15
2019-02-16T08:43:43.083Z,31.05
2019-02-16T08:44:43.094Z,31.35
2019-02-16T08:45:43.063Z,32.97
2019-02-16T08:46:43.051Z,32.57
2019-02-16T08:47:43.092Z,33.59
2019-02-16T08:48:43.027Z,33.12
2019-02-16T08:49:43.017Z,32.79
2019-02-16T08:50:43.007Z,31.07
2019-02-16T08:51:42.995Z,30.07
2019-02-16T08:52:43.027Z,30.55
2019-02-16T08:53:49.522Z,31.11
2019-02-16T08:54:43.962Z,30.73
2019-02-16T08:55:42.952Z,31.12
2019-02-16T08:56:42.943Z,30.62
2019-02-16T08:57:42.972Z,30.32
2019-02-16T08:58:42.931Z,30.43
2019-02-16T08:59:42.908Z,30.71
2019-02-16T09:00:42.897Z,30.21
2019-02-16T09:01:42.914Z,29.69
2019-02-16T09:02:42.919Z,29.78
2019-02-16T09:03:42.868Z,29.47
2019-02-16T09:04:42.860Z,29.06
2019-02-16T09:05:43.062Z,28.96
2019-02-16T09:06:42.831Z,29.35
2019-02-16T09:07:42.871Z,27.94
2019-02-16T09:08:42.958Z,29.44
2019-02-16T09:09:42.799Z,27.58
2019-02-16T09:10:42.788Z,28.19
2019-02-16T09:11:42.780Z,29.10
2019-02-16T09:12:42.813Z,30.32
2019-02-16T09:13:42.759Z,29.74
2019-02-16T09:14:42.747Z,29.88
2019-02-16T09:15:42.736Z,30.83
2019-02-16T09:16:42.728Z,32.28
2019-02-16T09:17:42.758Z,33.44
2019-02-16T09:18:42.706Z,34.56
2019-02-16T09:19:42.696Z,36.89
2019-02-16T09:20:42.691Z,35.80
2019-02-16T09:21:42.672Z,34.67
2019-02-16T09:22:42.712Z,35.75
2019-02-16T09:23:42.651Z,33.65
2019-02-16T09:24:42.639Z,32.86
2019-02-16T09:25:42.634Z,34.57
2019-02-16T09:26:42.618Z,32.76
2019-02-16T09:27:42.654Z,33.13
2019-02-16T09:28:42.597Z,31.57
2019-02-16T09:29:42.586Z,31.33
2019-02-16T09:30:42.577Z,30.71
2019-02-16T09:31:42.568Z,30.88
2019-02-16T09:32:42.599Z,30.28
2019-02-16T09:33:42.543Z,30.47
2019-02-16T09:34:42.532Z,29.47
2019-02-16T09:35:42.524Z,29.16
2019-02-16T09:36:42.521Z,30.18
2019-02-16T09:37:42.544Z,30.99
2019-02-16T09:38:42.490Z,33.38
2019-02-16T09:39:42.486Z,34.07
2019-02-16T09:40:42.472Z,29.00
2019-02-16T09:41:42.458Z,28.22
2019-02-16T09:42:42.499Z,28.08
2019-02-16T09:43:42.437Z,28.19
2019-02-16T09:44:42.431Z,28.01
2019-02-16T09:45:42.419Z,28.32
2019-02-16T09:46:42.407Z,27.92
2019-02-16T09:47:42.440Z,29.48
2019-02-16T09:48:42.382Z,31.77
2019-02-16T09:49:42.371Z,34.37
2019-02-16T09:50:42.362Z,31.71
2019-02-16T09:51:42.355Z,31.02
2019-02-16T09:52:42.391Z,31.95
2019-02-16T09:53:42.333Z,33.47
2019-02-16T09:54:42.320Z,32.73
2019-02-16T09:55:42.305Z,32.18
2019-02-16T09:56:42.357Z,30.02
2019-02-16T09:57:42.326Z,29.18
2019-02-16T09:58:42.278Z,29.01
2019-02-16T09:59:42.262Z,27.87
2019-02-16T10:00:42.253Z,27.34
2019-02-16T10:01:42.241Z,26.22
2019-02-16T10:02:42.288Z,26.09
2019-02-16T10:03:42.455Z,26.31
2019-02-16T10:04:42.207Z,26.51
2019-02-16T10:05:42.199Z,26.21
2019-02-16T10:06:42.185Z,26.62
2019-02-16T10:07:42.174Z,26.46
2019-02-16T10:08:42.207Z,27.88
2019-02-16T10:09:42.153Z,28.18
2019-02-16T10:10:42.143Z,27.56
2019-02-16T10:11:42.132Z,25.51
2019-02-16T10:12:42.121Z,25.78
2019-02-16T10:13:42.155Z,24.48
2019-02-16T10:14:42.109Z,24.88
2019-02-16T10:15:42.088Z,24.58
2019-02-16T10:16:42.078Z,24.60
2019-02-16T10:17:42.073Z,25.62
2019-02-16T10:18:42.099Z,25.54
2019-02-16T10:19:42.045Z,26.23
2019-02-16T10:20:42.034Z,27.26
2019-02-16T10:21:42.024Z,27.50
2019-02-16T10:22:42.014Z,28.52
2019-02-16T10:23:42.045Z,27.94
2019-02-16T10:24:41.992Z,29.14
2019-02-16T10:25:41.993Z,27.41
2019-02-16T10:26:41.970Z,27.97
2019-02-16T10:27:41.960Z,27.44
2019-02-16T10:28:41.997Z,27.02
2019-02-16T10:29:41.938Z,26.20
2019-02-16T10:30:41.928Z,26.18
2019-02-16T10:31:41.918Z,26.18
2019-02-16T10:32:41.908Z,26.59
2019-02-16T10:33:41.939Z,27.60
2019-02-16T10:34:41.889Z,26.39
2019-02-16T10:35:41.876Z,25.09
2019-02-16T10:36:41.864Z,26.08
2019-02-16T10:37:41.854Z,25.66
2019-02-16T10:38:41.892Z,26.03
2019-02-16T10:39:41.833Z,24.94
2019-02-16T10:40:41.823Z,25.45
2019-02-16T10:41:41.813Z,25.45
2019-02-16T10:42:41.802Z,25.95
2019-02-16T10:43:41.834Z,24.73
2019-02-16T10:44:41.779Z,24.01
2019-02-16T10:45:41.769Z,22.70
2019-02-16T10:46:41.769Z,22.59
2019-02-16T10:47:41.748Z,22.88
2019-02-16T10:48:41.782Z,22.88
2019-02-16T10:49:41.729Z,22.48
2019-02-16T10:50:41.719Z,22.58
2019-02-16T10:51:41.709Z,22.16
2019-02-16T10:52:41.701Z,21.07
2019-02-16T10:56:32.678Z,22.37
2019-02-16T10:57:36.885Z,21.46
2019-02-16T10:58:36.879Z,22.04
2019-02-16T10:59:37.071Z,21.35
2019-02-16T11:01:19.417Z,21.94
2019-02-16T11:16:21.169Z,40.48
2019-02-16T11:17:20.009Z,40.38
2019-02-16T11:18:20.054Z,40.61
2019-02-16T11:21:21.092Z,42.05
2019-02-16T11:22:19.969Z,43.37
2019-02-16T11:23:20.080Z,42.88
2019-02-16T11:24:19.944Z,42.57
2019-02-16T11:25:19.926Z,42.96
2019-02-16T11:26:19.904Z,43.37
2019-02-16T11:27:19.883Z,43.47
2019-02-16T11:28:19.941Z,43.67
2019-02-16T11:30:21.448Z,42.45
2019-02-16T11:31:19.854Z,43.16
2019-02-16T11:33:21.462Z,43.06
2019-02-16T11:34:20.806Z,42.45
2019-02-16T11:35:19.806Z,43.87
2019-02-16T11:36:19.803Z,43.16
2019-02-16T11:37:20.784Z,43.87
2019-02-16T11:38:19.922Z,43.67
2019-02-16T11:39:19.782Z,43.06
2019-02-16T11:40:19.742Z,42.35
2019-02-16T11:41:19.736Z,41.33
2019-02-16T11:43:21.448Z,42.35
2019-02-16T11:44:19.704Z,41.64
2019-02-16T11:45:19.743Z,42.43
2019-02-16T11:46:19.677Z,41.64
2019-02-16T11:47:19.676Z,41.64
2019-02-16T11:49:20.812Z,43.06
2019-02-16T11:51:20.753Z,42.76
2019-02-16T11:52:19.615Z,42.94
2019-02-16T11:53:19.626Z,42.33
2019-02-16T11:54:19.651Z,43.44
2019-02-16T11:56:21.464Z,42.84
2019-02-16T11:57:19.584Z,41.62
2019-02-16T11:58:19.574Z,41.42
2019-02-16T11:59:19.563Z,41.31
2019-02-16T12:01:21.454Z,42.72
2019-02-16T12:02:19.534Z,42.51
2019-02-16T12:03:19.491Z,42.00
2019-02-16T12:04:19.512Z,43.23
2019-02-16T12:05:19.463Z,42.51
2019-02-16T12:06:19.455Z,42.69
2019-02-16T12:08:20.450Z,40.97
2019-02-16T12:10:20.970Z,40.87
2019-02-16T12:11:19.418Z,41.28
2019-02-16T12:12:19.387Z,41.78
2019-02-16T12:14:21.023Z,41.58
2019-02-16T12:15:19.349Z,41.88
2019-02-16T12:16:19.340Z,40.97
2019-02-16T12:17:19.333Z,40.36
2019-02-16T12:19:20.945Z,40.47
2019-02-16T12:20:19.304Z,40.65
2019-02-16T12:21:19.312Z,40.65
2019-02-16T12:22:19.275Z,39.31
2019-02-16T12:23:19.275Z,41.03
2019-02-16T12:24:19.299Z,41.44
2019-02-16T12:25:19.242Z,39.21
2019-02-16T12:26:19.236Z,39.51
2019-02-16T12:27:19.222Z,39.31
2019-02-16T12:28:19.206Z,38.52
2019-02-16T12:29:19.222Z,38.70
2019-02-16T12:30:19.212Z,39.51
2019-02-16T12:32:21.036Z,39.21
2019-02-16T12:33:19.297Z,40.75
2019-02-16T12:35:20.951Z,39.31
2019-02-16T12:36:19.155Z,39.29
2019-02-16T12:37:19.116Z,39.19
2019-02-16T12:38:19.120Z,39.80
2019-02-16T12:39:19.099Z,39.11
2019-02-16T12:40:19.105Z,38.60
2019-02-16T12:41:19.125Z,38.70
2019-02-16T12:42:19.059Z,39.42
2019-02-16T12:43:19.043Z,39.80
2019-02-16T12:44:19.036Z,39.19
2019-02-16T12:45:19.034Z,38.99
2019-02-16T12:46:19.036Z,38.79
2019-02-16T12:47:19.002Z,38.79
2019-02-16T12:48:18.991Z,39.39
2019-02-16T12:49:18.980Z,38.99
2019-02-16T12:51:20.331Z,39.09
2019-02-16T12:54:20.453Z,38.79
2019-02-16T12:55:18.919Z,38.37
2019-02-16T12:56:18.896Z,38.08
2019-02-16T12:57:18.918Z,38.08
2019-02-16T12:58:18.883Z,38.97
2019-02-16T12:59:18.863Z,38.79
2019-02-16T13:00:18.849Z,38.39
2019-02-16T13:02:20.454Z,38.26
2019-02-16T13:03:18.823Z,38.97
2019-02-16T13:04:18.812Z,38.87
2019-02-16T13:05:18.809Z,38.57
2019-02-16T13:06:18.791Z,38.26
2019-02-16T13:07:18.824Z,39.48
2019-02-16T13:08:18.764Z,38.16
2019-02-16T13:09:18.760Z,39.07
2019-02-16T13:10:18.763Z,39.17
2019-02-16T13:12:20.468Z,38.75
2019-02-16T13:13:18.712Z,37.55
2019-02-16T13:15:20.456Z,38.65
2019-02-16T13:16:18.680Z,38.14
2019-02-16T13:17:18.700Z,37.96
2019-02-16T13:18:18.702Z,37.64
2019-02-16T13:20:20.457Z,37.74
2019-02-16T13:21:18.626Z,37.34
2019-02-16T13:22:18.655Z,36.72
2019-02-16T13:23:18.636Z,36.83
2019-02-16T13:24:18.608Z,37.94
2019-02-16T13:25:24.337Z,39.06
2019-02-16T13:26:19.562Z,37.43
2019-02-16T13:27:18.587Z,37.64
2019-02-16T13:28:18.591Z,38.02
2019-02-16T13:30:20.510Z,38.84
2019-02-16T13:31:18.518Z,38.02
2019-02-16T13:33:19.967Z,38.51
2019-02-16T13:35:19.953Z,37.52